createdAt,value
2022-08-06T00:00:02.179Z,2.88
2022-08-06T00:02:25.898Z,1.52
2022-08-06T00:05:03.962Z,2.88
2022-08-06T00:07:44.721Z,2.80
2022-08-06T00:10:13.861Z,3.13
2022-08-06T00:12:41.933Z,3.03
2022-08-06T00:15:13.494Z,4.13
2022-08-06T00:17:46.162Z,3.85
2022-08-06T00:20:25.657Z,1.75
2022-08-06T00:22:57.560Z,0.98
2022-08-06T00:25:24.755Z,2.05
2022-08-06T00:27:53.481Z,2.85
2022-08-06T00:30:22.086Z,1.70
2022-08-06T00:32:52.165Z,3.72
2022-08-06T00:35:28.363Z,2.28
2022-08-06T00:37:59.190Z,4.38
2022-08-06T00:40:29.696Z,3.15
2022-08-06T00:43:00.964Z,3.40
2022-08-06T00:45:38.299Z,4.25
2022-08-06T00:48:21.728Z,2.28
2022-08-06T00:51:02.120Z,3.17
2022-08-06T00:53:34.109Z,4.97
2022-08-06T00:56:08.404Z,3.45
2022-08-06T00:58:40.314Z,5.50
2022-08-06T01:01:16.552Z,5.80
2022-08-06T01:03:51.422Z,4.22
2022-08-06T01:06:56.438Z,6.32
2022-08-06T01:09:11.055Z,3.13
2022-08-06T01:11:39.562Z,4.47
2022-08-06T01:14:10.122Z,5.50
2022-08-06T01:16:58.273Z,3.25
2022-08-06T01:19:50.879Z,2.90
2022-08-06T01:22:33.124Z,8.57
2022-08-06T01:25:27.719Z,4.43
2022-08-06T01:28:38.482Z,7.72
2022-08-06T01:31:22.174Z,7.05
2022-08-06T01:34:01.732Z,8.85
2022-08-06T01:36:37.664Z,9.30
2022-08-06T01:39:10.275Z,5.32
2022-08-06T01:41:57.995Z,4.85
2022-08-06T01:44:39.969Z,9.00
2022-08-06T01:47:16.365Z,5.70
2022-08-06T01:50:01.125Z,6.27
2022-08-06T01:52:38.452Z,4.15
2022-08-06T01:55:16.067Z,4.90
2022-08-06T01:58:08.269Z,4.25
2022-08-06T02:03:18.018Z,5.15
2022-08-06T02:05:53.546Z,3.55
2022-08-06T02:12:00.801Z,6.35
2022-08-06T02:13:53.997Z,10.13
2022-08-06T02:16:23.704Z,6.57
2022-08-06T02:18:56.168Z,4.57
2022-08-06T02:21:32.599Z,4.65
2022-08-06T02:24:03.891Z,4.35
2022-08-06T02:26:36.838Z,4.60
2022-08-06T02:29:14.377Z,6.43
2022-08-06T02:31:50.850Z,7.50
2022-08-06T02:34:27.130Z,6.40
2022-08-06T02:37:06.460Z,6.80
2022-08-06T02:40:01.659Z,6.65
2022-08-06T02:42:40.592Z,8.15
2022-08-06T02:45:20.547Z,9.70
2022-08-06T02:48:01.765Z,7.07
2022-08-06T02:50:57.785Z,5.28
2022-08-06T02:53:37.347Z,6.68
2022-08-06T02:56:19.197Z,4.90
2022-08-06T02:58:58.166Z,5.43
2022-08-06T03:01:39.356Z,7.43
2022-08-06T03:04:12.696Z,6.97
2022-08-06T03:06:46.699Z,7.65
2022-08-06T03:11:45.395Z,8.13
2022-08-06T03:15:03.337Z,9.05
2022-08-06T03:17:07.287Z,6.07
2022-08-06T03:19:57.669Z,7.07
2022-08-06T03:22:35.848Z,7.90
2022-08-06T03:25:13.810Z,5.25
2022-08-06T03:27:42.959Z,6.20
2022-08-06T03:30:31.878Z,6.47
2022-08-06T03:33:29.496Z,5.95
2022-08-06T03:36:00.497Z,4.53
2022-08-06T03:38:32.531Z,5.33
2022-08-06T03:41:01.910Z,6.80
2022-08-06T03:43:56.724Z,5.25
2022-08-06T03:46:24.101Z,6.05
2022-08-06T03:48:55.579Z,6.22
2022-08-06T03:51:50.717Z,5.32
2022-08-06T03:54:27.756Z,6.15
2022-08-06T03:57:08.375Z,6.78
2022-08-06T03:59:59.100Z,8.32
2022-08-06T04:02:45.716Z,6.15
2022-08-06T04:05:23.843Z,5.72
2022-08-06T04:07:56.530Z,5.18
2022-08-06T04:10:57.344Z,6.95
2022-08-06T04:14:06.299Z,6.15
2022-08-06T04:16:29.602Z,6.32
2022-08-06T04:19:01.159Z,5.05
2022-08-06T04:22:59.188Z,4.30
2022-08-06T04:24:16.766Z,5.65
2022-08-06T04:26:46.608Z,4.45
2022-08-06T04:29:18.197Z,6.93
2022-08-06T04:32:12.301Z,4.57
2022-08-06T04:36:06.550Z,6.30
2022-08-06T04:37:27.028Z,6.30
2022-08-06T04:40:13.086Z,6.15
2022-08-06T04:42:42.837Z,5.25
2022-08-06T04:46:18.068Z,5.50
2022-08-06T04:48:00.515Z,6.47
2022-08-06T04:50:32.598Z,7.30
2022-08-06T04:53:42.883Z,6.32
2022-08-06T04:56:03.825Z,5.28
2022-08-06T04:58:33.271Z,5.20
2022-08-06T05:01:06.975Z,7.10
2022-08-06T05:04:07.160Z,6.47
2022-08-06T05:06:53.899Z,5.90
2022-08-06T05:09:38.571Z,6.97
2022-08-06T05:12:39.322Z,6.68
2022-08-06T05:15:41.709Z,8.40
2022-08-06T05:19:15.825Z,9.85
2022-08-06T05:21:05.915Z,7.20
2022-08-06T05:23:46.852Z,8.60
2022-08-06T05:26:24.591Z,10.60
2022-08-06T05:28:52.623Z,8.30
2022-08-06T05:31:40.536Z,8.07
2022-08-06T05:34:12.690Z,5.45
2022-08-06T05:36:40.515Z,6.70
2022-08-06T05:39:28.999Z,8.32
2022-08-06T05:41:59.837Z,7.57
2022-08-06T05:44:29.831Z,8.00
2022-08-06T05:47:06.300Z,6.22
2022-08-06T05:49:58.726Z,7.60
2022-08-06T05:52:35.739Z,9.05
2022-08-06T05:55:04.546Z,9.13
2022-08-06T05:57:42.346Z,11.88
2022-08-06T06:00:41.620Z,12.18
2022-08-06T06:03:04.087Z,14.77
2022-08-06T06:06:06.179Z,12.50
2022-08-06T06:08:29.696Z,16.45
2022-08-06T06:11:10.152Z,11.60
2022-08-06T06:13:40.164Z,11.65
2022-08-06T06:16:31.658Z,13.15
2022-08-06T06:19:19.151Z,12.40
2022-08-06T06:21:58.380Z,14.60
2022-08-06T06:24:42.090Z,14.60
2022-08-06T06:27:35.721Z,17.60
2022-08-06T06:30:19.915Z,12.98
2022-08-06T06:33:14.311Z,16.08
2022-08-06T06:35:55.486Z,15.13
2022-08-06T06:38:35.473Z,14.32
2022-08-06T06:41:31.569Z,18.00
2022-08-06T06:44:24.432Z,13.18
2022-08-06T06:47:20.040Z,11.63
2022-08-06T06:50:12.634Z,13.10
2022-08-06T06:52:49.944Z,11.10
2022-08-06T06:55:36.512Z,15.77
2022-08-06T06:58:24.272Z,14.02
2022-08-06T07:01:26.943Z,15.70
2022-08-06T07:03:44.612Z,13.55
2022-08-06T07:06:31.754Z,14.82
2022-08-06T07:09:12.101Z,14.98
2022-08-06T07:12:02.899Z,14.57
2022-08-06T07:14:34.211Z,13.93
2022-08-06T07:17:46.469Z,15.40
2022-08-06T07:19:55.438Z,9.68
2022-08-06T07:22:24.531Z,9.45
2022-08-06T07:25:01.262Z,11.45
2022-08-06T07:27:40.273Z,11.10
2022-08-06T07:30:15.250Z,9.75
2022-08-06T07:32:49.121Z,11.85
2022-08-06T07:35:20.911Z,13.93
2022-08-06T07:37:55.849Z,11.48
2022-08-06T07:40:54.147Z,10.65
2022-08-06T07:43:35.154Z,10.45
2022-08-06T07:46:05.253Z,20.42
2022-08-06T07:48:52.770Z,10.20
2022-08-06T07:51:34.187Z,9.10
2022-08-06T07:54:09.725Z,9.18
2022-08-06T07:56:59.675Z,8.70
2022-08-06T07:59:30.543Z,9.82
2022-08-06T08:01:59.574Z,9.18
2022-08-06T08:04:53.758Z,10.57
2022-08-06T08:07:37.587Z,9.38
2022-08-06T08:10:15.324Z,12.00
2022-08-06T08:12:45.109Z,11.43
2022-08-06T08:15:17.956Z,12.00
2022-08-06T08:17:56.276Z,8.20
2022-08-06T08:20:34.592Z,11.45
2022-08-06T08:23:07.386Z,11.73
2022-08-06T08:25:42.955Z,8.27
2022-08-06T08:28:17.144Z,12.77
2022-08-06T08:30:48.125Z,10.80
2022-08-06T08:33:20.839Z,14.50
2022-08-06T08:36:00.130Z,8.80
2022-08-06T08:38:36.227Z,10.00
2022-08-06T08:41:22.305Z,12.73
2022-08-06T08:44:06.494Z,10.60
2022-08-06T08:46:43.888Z,12.77
2022-08-06T08:49:46.936Z,10.63
2022-08-06T08:52:21.566Z,8.07
2022-08-06T08:54:52.640Z,7.10
2022-08-06T08:59:01.802Z,11.55
2022-08-06T09:00:11.148Z,13.07
2022-08-06T09:02:40.126Z,7.28
2022-08-06T09:05:19.398Z,7.38
2022-08-06T09:08:00.681Z,8.25
2022-08-06T09:10:33.319Z,7.85
2022-08-06T09:13:01.307Z,10.35
2022-08-06T09:15:28.758Z,7.47
2022-08-06T09:18:25.919Z,6.40
2022-08-06T09:20:50.647Z,6.32
2022-08-06T09:23:19.292Z,8.25
2022-08-06T09:25:52.327Z,6.97
2022-08-06T09:28:39.703Z,10.98
2022-08-06T09:31:21.757Z,7.97
2022-08-06T09:34:19.231Z,5.82
2022-08-06T09:36:47.276Z,5.68
2022-08-06T09:39:22.965Z,9.57
2022-08-06T09:41:53.897Z,5.88
2022-08-06T09:44:37.839Z,6.10
2022-08-06T09:47:16.021Z,6.55
2022-08-06T09:49:57.937Z,6.05
2022-08-06T09:52:28.290Z,5.95
2022-08-06T09:54:55.570Z,5.03
2022-08-06T09:57:35.789Z,4.30
2022-08-06T10:00:09.314Z,5.50
2022-08-06T10:02:42.137Z,6.18
2022-08-06T10:05:19.888Z,5.70
2022-08-06T10:08:01.904Z,6.20
2022-08-06T10:10:46.621Z,5.27
2022-08-06T10:13:24.581Z,7.20
2022-08-06T10:16:04.168Z,5.05
2022-08-06T10:18:57.777Z,4.88
2022-08-06T10:21:42.426Z,5.65
2022-08-06T10:24:25.815Z,9.20
2022-08-06T10:27:14.995Z,8.45
2022-08-06T10:29:45.186Z,10.20
2022-08-06T10:32:17.737Z,6.78
2022-08-06T10:34:49.466Z,5.90
2022-08-06T10:37:49.629Z,5.75
2022-08-06T10:40:12.549Z,6.03
2022-08-06T10:42:40.947Z,6.15
2022-08-06T10:45:16.548Z,7.80
2022-08-06T10:48:59.269Z,4.65
2022-08-06T10:50:44.642Z,4.63
2022-08-06T10:53:20.774Z,4.78
2022-08-06T10:56:09.155Z,5.97
2022-08-06T10:58:37.974Z,4.82
2022-08-06T11:01:11.251Z,9.68
2022-08-06T11:04:14.293Z,7.22
2022-08-06T11:07:00.816Z,6.32
2022-08-06T11:09:59.941Z,7.45
2022-08-06T11:12:47.877Z,8.85
2022-08-06T11:15:22.574Z,7.13
2022-08-06T11:17:55.801Z,6.15
2022-08-06T11:20:41.138Z,5.47
2022-08-06T11:23:52.424Z,6.03
2022-08-06T11:26:04.769Z,5.80
2022-08-06T11:28:32.322Z,6.40
2022-08-06T11:31:03.006Z,4.57
2022-08-06T11:33:36.547Z,5.68
2022-08-06T11:36:10.901Z,6.68
2022-08-06T11:38:50.716Z,5.93
2022-08-06T11:41:54.688Z,5.13
2022-08-06T11:44:25.288Z,6.82
2022-08-06T11:47:12.123Z,17.63
2022-08-06T11:49:46.595Z,10.55
2022-08-06T11:52:39.267Z,4.28
2022-08-06T11:55:12.631Z,5.65
2022-08-06T11:57:50.854Z,4.82
2022-08-06T12:00:23.686Z,5.97
2022-08-06T12:02:56.683Z,4.38
2022-08-06T12:05:25.507Z,4.38
2022-08-06T12:08:42.568Z,7.20
2022-08-06T12:11:35.754Z,6.75
2022-08-06T12:14:33.467Z,4.35
2022-08-06T12:16:52.997Z,4.85
2022-08-06T12:19:24.807Z,4.50
2022-08-06T12:21:57.120Z,3.33
2022-08-06T12:24:45.256Z,4.05
2022-08-06T12:27:24.158Z,3.53
2022-08-06T12:29:59.775Z,4.90
2022-08-06T12:32:28.355Z,6.03
2022-08-06T12:35:11.412Z,4.90
2022-08-06T12:37:48.039Z,4.35
2022-08-06T12:40:34.324Z,4.78
2022-08-06T12:43:14.660Z,4.25
2022-08-06T12:46:06.272Z,3.85
2022-08-06T12:48:35.742Z,4.55
2022-08-06T12:51:14.467Z,7.03
2022-08-06T12:54:01.020Z,3.47
2022-08-06T12:56:33.082Z,5.80
2022-08-06T12:59:04.309Z,4.82
2022-08-06T13:02:07.030Z,5.15
2022-08-06T13:04:30.428Z,3.80
2022-08-06T13:07:00.622Z,3.40
2022-08-06T13:09:35.169Z,5.95
2022-08-06T13:12:29.382Z,4.80
2022-08-06T13:15:18.622Z,6.38
2022-08-06T13:18:30.228Z,6.82
2022-08-06T13:20:58.765Z,4.78
2022-08-06T13:23:29.184Z,6.75
2022-08-06T13:26:10.614Z,4.15
2022-08-06T13:30:34.357Z,3.95
2022-08-06T13:32:32.603Z,3.83
2022-08-06T13:35:00.530Z,2.83
2022-08-06T13:37:55.627Z,4.65
2022-08-06T13:40:57.135Z,3.42
2022-08-06T13:43:55.327Z,4.07
2022-08-06T13:46:29.592Z,3.90
2022-08-06T13:49:04.484Z,4.85
2022-08-06T13:51:49.142Z,3.00
2022-08-06T13:54:23.478Z,3.28
2022-08-06T13:56:52.536Z,4.45
2022-08-06T13:59:40.585Z,5.03
2022-08-06T14:02:11.874Z,3.90
2022-08-06T14:04:40.561Z,5.43
2022-08-06T14:07:10.803Z,2.30
2022-08-06T14:10:08.144Z,2.97
2022-08-06T14:12:29.706Z,3.67
2022-08-06T14:14:57.884Z,5.32
2022-08-06T14:17:33.979Z,2.65
2022-08-06T14:20:09.449Z,3.97
2022-08-06T14:22:45.592Z,2.38
2022-08-06T14:25:15.676Z,4.10
2022-08-06T14:27:44.716Z,2.47
2022-08-06T14:30:26.687Z,2.97
2022-08-06T14:33:10.896Z,3.42
2022-08-06T14:35:51.082Z,4.60
2022-08-06T14:38:20.810Z,3.63
2022-08-06T14:41:09.748Z,5.82
2022-08-06T14:43:57.795Z,4.60
2022-08-06T14:46:30.921Z,5.28
2022-08-06T14:49:00.385Z,5.60
2022-08-06T14:51:37.912Z,3.33
2022-08-06T14:54:17.848Z,6.40
2022-08-06T14:56:52.425Z,5.13
2022-08-06T14:59:26.314Z,4.15
2022-08-06T15:01:59.816Z,3.30
2022-08-06T15:04:27.352Z,5.03
2022-08-06T15:06:57.327Z,4.50
2022-08-06T15:10:06.241Z,4.82
2022-08-06T15:12:35.155Z,3.97
2022-08-06T15:15:13.426Z,4.32
2022-08-06T15:18:05.235Z,3.92
2022-08-06T15:20:29.558Z,5.93
2022-08-06T15:22:57.938Z,4.47
2022-08-06T15:26:01.724Z,4.28
2022-08-06T15:28:14.830Z,3.50
2022-08-06T15:30:46.796Z,3.78
2022-08-06T15:33:15.363Z,3.88
2022-08-06T15:35:57.991Z,4.28
2022-08-06T15:38:32.412Z,5.32
2022-08-06T15:41:01.413Z,3.08
2022-08-06T15:43:43.994Z,4.57
2022-08-06T15:46:14.602Z,5.50
2022-08-06T15:48:47.393Z,6.28
2022-08-06T15:51:30.998Z,4.43
2022-08-06T15:54:00.537Z,3.28
2022-08-06T15:56:39.464Z,6.10
2022-08-06T15:59:20.366Z,3.92
2022-08-06T16:02:02.070Z,4.97
2022-08-06T16:04:35.758Z,4.38
2022-08-06T16:07:04.850Z,4.45
2022-08-06T16:10:00.454Z,3.97
2022-08-06T16:12:22.666Z,5.80
2022-08-06T16:14:57.422Z,4.80
2022-08-06T16:17:33.559Z,7.03
2022-08-06T16:20:20.189Z,3.75
2022-08-06T16:22:48.578Z,5.03
2022-08-06T16:25:17.423Z,4.47
2022-08-06T16:27:44.634Z,5.80
2022-08-06T16:30:15.386Z,4.25
2022-08-06T16:32:44.892Z,4.38
2022-08-06T16:35:15.160Z,4.28
2022-08-06T16:37:45.537Z,5.60
2022-08-06T16:40:24.554Z,3.85
2022-08-06T16:42:56.738Z,4.25
2022-08-06T16:45:37.286Z,6.80
2022-08-06T16:48:25.242Z,4.90
2022-08-06T16:51:02.541Z,3.20
2022-08-06T16:54:12.632Z,3.90
2022-08-06T16:56:18.532Z,5.53
2022-08-06T16:58:48.631Z,6.22
2022-08-06T17:02:14.650Z,3.60
2022-08-06T17:04:23.729Z,4.70
2022-08-06T17:06:53.385Z,3.10
2022-08-06T17:09:21.233Z,4.57
2022-08-06T17:11:58.838Z,3.20
2022-08-06T17:14:32.731Z,2.83
2022-08-06T17:17:07.255Z,5.85
2022-08-06T17:19:37.111Z,3.03
2022-08-06T17:22:07.626Z,3.33
2022-08-06T17:24:38.168Z,4.32
2022-08-06T17:29:54.799Z,3.40
2022-08-06T17:32:32.903Z,4.13
2022-08-06T17:35:12.483Z,4.63
2022-08-06T17:37:45.175Z,5.35
2022-08-06T17:40:30.577Z,4.47
2022-08-06T17:43:05.009Z,7.70
2022-08-06T17:45:52.596Z,6.82
2022-08-06T17:48:30.731Z,4.65
2022-08-06T17:50:58.520Z,4.53
2022-08-06T17:53:52.207Z,4.18
2022-08-06T17:56:29.363Z,3.78
2022-08-06T17:59:04.917Z,4.00
2022-08-06T18:01:45.717Z,3.95
2022-08-06T18:04:22.490Z,3.22
2022-08-06T18:06:58.499Z,4.13
2022-08-06T18:10:09.262Z,4.65
2022-08-06T18:12:14.346Z,3.42
2022-08-06T18:14:52.271Z,7.60
2022-08-06T18:17:20.204Z,3.28
2022-08-06T18:19:47.373Z,4.35
2022-08-06T18:22:25.278Z,3.25
2022-08-06T18:24:55.315Z,5.32
2022-08-06T18:27:53.691Z,4.63
2022-08-06T18:30:30.079Z,5.80
2022-08-06T18:33:08.119Z,3.47
2022-08-06T18:35:54.723Z,4.57
2022-08-06T18:38:31.375Z,3.63
2022-08-06T18:43:49.960Z,3.38
2022-08-06T18:46:56.633Z,5.32
2022-08-06T18:49:26.921Z,4.35
2022-08-06T18:52:22.987Z,4.57
2022-08-06T18:54:56.204Z,4.03
2022-08-06T18:58:04.271Z,4.53
2022-08-06T19:00:18.982Z,5.05
2022-08-06T19:02:49.779Z,4.90
2022-08-06T19:05:26.879Z,7.22
2022-08-06T19:07:59.984Z,4.10
2022-08-06T19:10:28.997Z,4.25
2022-08-06T19:12:57.725Z,5.25
2022-08-06T19:15:45.088Z,4.80
2022-08-06T19:18:16.999Z,5.13
2022-08-06T19:20:45.670Z,4.47
2022-08-06T19:24:00.512Z,6.28
2022-08-06T19:26:12.240Z,5.53
2022-08-06T19:28:50.087Z,3.83
2022-08-06T19:31:41.962Z,4.60
2022-08-06T19:36:48.219Z,3.90
2022-08-06T19:39:53.149Z,4.20
2022-08-06T19:42:15.750Z,8.40
2022-08-06T19:45:04.533Z,5.28
2022-08-06T19:47:47.491Z,2.90
2022-08-06T19:50:19.474Z,4.63
2022-08-06T19:52:48.980Z,7.18
2022-08-06T19:56:07.513Z,5.38
2022-08-06T19:58:26.359Z,4.45
2022-08-06T20:01:06.026Z,3.17
2022-08-06T20:03:52.051Z,4.55
2022-08-06T20:06:29.964Z,3.85
2022-08-06T20:09:08.265Z,5.05
2022-08-06T20:12:04.044Z,4.38
2022-08-06T20:14:33.350Z,5.95
2022-08-06T20:17:01.129Z,6.20
2022-08-06T20:20:06.424Z,4.85
2022-08-06T20:22:15.755Z,3.40
2022-08-06T20:24:43.407Z,2.92
2022-08-06T20:27:10.788Z,6.32
2022-08-06T20:30:05.063Z,5.32
2022-08-06T20:32:37.859Z,3.15
2022-08-06T20:35:07.095Z,3.92
2022-08-06T20:37:44.499Z,6.47
2022-08-06T20:40:19.593Z,6.38
2022-08-06T20:42:50.026Z,5.88
2022-08-06T20:45:32.105Z,6.25
2022-08-06T20:50:37.954Z,7.38
2022-08-06T20:53:14.160Z,7.43
2022-08-06T20:55:45.899Z,5.45
2022-08-06T20:58:13.960Z,4.70
2022-08-06T21:00:42.345Z,3.92
2022-08-06T21:05:10.962Z,6.07
2022-08-06T21:05:57.044Z,6.82
2022-08-06T21:08:26.347Z,6.40
2022-08-06T21:10:57.298Z,5.13
2022-08-06T21:13:35.495Z,5.00
2022-08-06T21:16:14.889Z,4.40
2022-08-06T21:19:00.567Z,4.70
2022-08-06T21:21:31.585Z,4.45
2022-08-06T21:24:03.440Z,4.00
2022-08-06T21:26:35.477Z,5.53
2022-08-06T21:30:07.220Z,4.75
2022-08-06T21:31:54.053Z,3.88
2022-08-06T21:34:28.495Z,3.77
2022-08-06T21:37:02.333Z,2.67
2022-08-06T21:39:56.574Z,3.72
2022-08-06T21:42:25.737Z,5.43
2022-08-06T21:44:52.864Z,4.13
2022-08-06T21:47:20.226Z,3.80
2022-08-06T21:49:59.046Z,6.00
2022-08-06T21:52:33.814Z,6.28
2022-08-06T21:55:05.451Z,5.47
2022-08-06T21:57:48.410Z,4.00
2022-08-06T22:00:19.123Z,3.80
2022-08-06T22:02:56.841Z,4.35
2022-08-06T22:06:22.486Z,4.78
2022-08-06T22:08:15.720Z,3.70
2022-08-06T22:10:48.910Z,5.80
2022-08-06T22:13:24.323Z,3.72
2022-08-06T22:15:55.661Z,6.63
2022-08-06T22:18:28.651Z,4.47
2022-08-06T22:20:59.958Z,3.80
2022-08-06T22:23:30.269Z,4.88
2022-08-06T22:26:01.662Z,3.30
2022-08-06T22:28:34.329Z,4.10
2022-08-06T22:31:05.764Z,4.38
2022-08-06T22:33:58.693Z,5.60
2022-08-06T22:36:34.602Z,4.40
2022-08-06T22:39:04.382Z,5.82
2022-08-06T22:41:42.292Z,5.50
2022-08-06T22:44:30.859Z,4.18
2022-08-06T22:47:00.362Z,3.92
2022-08-06T22:49:28.944Z,3.55
2022-08-06T22:52:04.733Z,3.97
2022-08-06T22:54:58.836Z,4.55
2022-08-06T22:57:26.205Z,4.78
2022-08-06T23:00:18.221Z,4.78
2022-08-06T23:02:45.922Z,4.03
2022-08-06T23:05:18.006Z,6.00
2022-08-06T23:07:53.821Z,4.00
2022-08-06T23:10:22.084Z,5.88
2022-08-06T23:12:49.299Z,5.13
2022-08-06T23:15:30.224Z,5.50
2022-08-06T23:18:08.254Z,3.67
2022-08-06T23:20:41.382Z,4.40
2022-08-06T23:23:12.659Z,5.85
2022-08-06T23:25:59.362Z,3.88
2022-08-06T23:28:31.163Z,3.95
2022-08-06T23:30:59.430Z,4.63
2022-08-06T23:33:38.446Z,3.50
2022-08-06T23:36:08.831Z,4.60
2022-08-06T23:38:42.441Z,10.23
2022-08-06T23:41:16.246Z,4.15
2022-08-06T23:43:49.702Z,8.30
2022-08-06T23:46:26.877Z,6.57
2022-08-06T23:48:55.776Z,8.80
2022-08-06T23:51:36.119Z,4.68
2022-08-06T23:54:23.377Z,4.15
2022-08-06T23:56:57.589Z,4.72
2022-08-06T23:59:44.627Z,5.63
